• Join FlightAware (Why Join?)
  • Login
  • US Flag 
02:32PM EDT


 

Airport Tracker/Info


-or-


 

Live Flight TrackerFlight Track Log ✈ TAM3480 ✈ 28-Jul-2013 ✈ SBBR / BSB - SBMO / MCZ

Flight Track Log - Related Links

Times and Time Zones

All times are in EDT time to prevent confusion due to time zone crossing. See the TAM3480 flight status page for this flight to view local times or setup timezone preferences in your user account.

Time Position Orientation Groundspeed Altitude Reporting Facility
EDT Latitude Longitude Course Direction KTS MPH feet Rate Location/Type
09:28PM -15.8630 -47.9200 63° Northeast 98 113  Level FlightAware
09:28PM -15.8620 -47.9000 87° East 167 192 3,500 5,160 Climbing FlightAware
09:29PM -15.8610 -47.8810 87° East 170 196 4,400 2,280 Climbing FlightAware
09:29PM -15.8610 -47.8570 90° East 164 189 5,600 1,740 Climbing FlightAware
09:30PM -15.8590 -47.8310 85° East 188 216 6,200 1,200 Climbing FlightAware
09:30PM -15.8570 -47.8070 85° East 217 250 6,700 1,320 Climbing FlightAware
09:31PM -15.8560 -47.7800 88° East 247 284 7,300 1,500 Climbing FlightAware
09:31PM -15.8530 -47.7450 85° East 282 325 8,000 2,220 Climbing FlightAware
09:31PM -15.8510 -47.7050 87° East 290 334 9,400 2,640 Climbing FlightAware
09:32PM -15.8470 -47.6460 86° East 310 357 11,100 2,280 Climbing FlightAware
09:33PM -15.8440 -47.5910 87° East 334 384 12,300 2,160 Climbing FlightAware
09:33PM -15.8330 -47.5190 81° East 347 399 14,000 2,220 Climbing FlightAware
09:34PM -15.8000 -47.4690 56° Northeast 358 412 15,400 2,040 Climbing FlightAware
09:35PM -15.7560 -47.4050 54° Northeast 372 428 16,800 2,220 Climbing FlightAware
09:35PM -15.7150 -47.3460 54° Northeast 365 420 18,600 2,040 Climbing FlightAware
09:36PM -15.6720 -47.2830 55° Northeast 380 437 19,700 1,860 Climbing FlightAware
09:37PM -15.6310 -47.2240 54° Northeast 373 429 21,300 2,040 Climbing FlightAware
09:37PM -15.5940 -47.1700 55° Northeast 380 437 22,300 1,620 Climbing FlightAware
09:38PM -15.5480 -47.1030 55° Northeast 391 450 23,500 900 Climbing FlightAware
09:39PM -15.5180 -47.0570 56° Northeast 392 451 23,600 60 Climbing FlightAware
09:40PM -15.4740 -46.9930 55° Northeast 392 451 23,600  Level FlightAware
09:40PM -15.4420 -46.9460 55° Northeast 392 451 23,600  Level FlightAware
09:41PM -15.3990 -46.8820 55° Northeast 392 451 23,600  Level FlightAware
09:42PM -15.3690 -46.8370 55° Northeast 392 451 23,600 180 Level FlightAware
09:44PM -15.2743 -46.6464 63° Northeast  Level Estimated
09:45PM -15.2230 -46.5434 63° Northeast  Level Estimated
09:46PM -15.1717 -46.4404 63° Northeast  Level Estimated
09:47PM -15.1203 -46.3376 63° Northeast  Level Estimated
09:48PM -15.0689 -46.2347 63° Northeast  Level Estimated
09:49PM -15.0174 -46.1320 63° Northeast  Level Estimated
09:50PM -14.9659 -46.0292 63° Northeast  Level Estimated
09:51PM -14.9144 -45.9265 63° Northeast  Level Estimated
09:52PM -14.8628 -45.8239 63° Northeast  Level Estimated
09:53PM -14.8111 -45.7213 63° Northeast  Level Estimated
09:54PM -14.7594 -45.6188 62° Northeast  Level Estimated
09:55PM -14.7077 -45.5163 62° Northeast  Level Estimated
09:56PM -14.6559 -45.4139 62° Northeast  Level Estimated
09:57PM -14.6041 -45.3115 62° Northeast  Level Estimated
09:58PM -14.5522 -45.2091 62° Northeast  Level Estimated
09:59PM -14.5007 -45.1077 62° Northeast  Level Estimated
10:00PM -14.4492 -45.0063 62° Northeast  Level Estimated
10:01PM -14.3976 -44.9049 62° Northeast  Level Estimated
10:02PM -14.3460 -44.8036 62° Northeast  Level Estimated
10:03PM -14.2944 -44.7024 62° Northeast  Level Estimated
10:04PM -14.2427 -44.6012 62° Northeast  Level Estimated
10:05PM -14.1909 -44.5000 62° Northeast  Level Estimated
10:06PM -14.1391 -44.3989 62° Northeast  Level Estimated
10:07PM -14.0873 -44.2978 62° Northeast  Level Estimated
10:08PM -14.0354 -44.1968 62° Northeast  Level Estimated
10:09PM -13.9835 -44.0958 62° Northeast  Level Estimated
10:10PM -13.9316 -43.9949 62° Northeast  Level Estimated
10:11PM -13.8796 -43.8940 62° Northeast  Level Estimated
10:12PM -13.8275 -43.7931 62° Northeast  Level Estimated
10:13PM -13.7754 -43.6923 62° Northeast  Level Estimated
10:14PM -13.7233 -43.5915 62° Northeast  Level Estimated
10:15PM -13.6712 -43.4908 62° Northeast  Level Estimated
10:16PM -13.6190 -43.3902 62° Northeast  Level Estimated
10:17PM -13.5667 -43.2896 62° Northeast  Level Estimated
10:18PM -13.5145 -43.1890 62° Northeast  Level Estimated
10:19PM -13.4621 -43.0884 62° Northeast  Level Estimated
10:20PM -13.4098 -42.9879 62° Northeast  Level Estimated
10:21PM -13.3574 -42.8875 62° Northeast  Level Estimated
10:22PM -13.3049 -42.7871 62° Northeast  Level Estimated
10:23PM -13.2524 -42.6867 62° Northeast  Level Estimated
10:24PM -13.1999 -42.5864 62° Northeast  Level Estimated
10:25PM -13.1474 -42.4861 62° Northeast  Level Estimated
10:26PM -13.0948 -42.3859 62° Northeast  Level Estimated
10:27PM -13.0421 -42.2857 62° Northeast  Level Estimated
10:28PM -12.9895 -42.1856 62° Northeast  Level Estimated
10:29PM -12.9368 -42.0855 62° Northeast  Level Estimated
10:30PM -12.8840 -41.9854 62° Northeast  Level Estimated
10:31PM -12.8312 -41.8854 62° Northeast  Level Estimated
10:32PM -12.7784 -41.7854 62° Northeast  Level Estimated
10:33PM -12.7255 -41.6855 62° Northeast  Level Estimated
10:34PM -12.6726 -41.5856 62° Northeast  Level Estimated
10:35PM -12.6197 -41.4858 61° Northeast  Level Estimated
10:36PM -12.5667 -41.3859 61° Northeast  Level Estimated
10:37PM -12.5137 -41.2862 61° Northeast  Level Estimated
10:38PM -12.4606 -41.1865 61° Northeast  Level Estimated
10:39PM -12.4075 -41.0868 61° Northeast  Level Estimated
10:40PM -12.3544 -40.9871 61° Northeast  Level Estimated
10:41PM -12.3013 -40.8875 61° Northeast  Level Estimated
10:42PM -12.2481 -40.7879 61° Northeast  Level Estimated
10:43PM -12.1948 -40.6884 61° Northeast  Level Estimated
10:44PM -12.1416 -40.5889 61° Northeast  Level Estimated
10:45PM -12.0883 -40.4895 61° Northeast  Level Estimated
10:46PM -12.0349 -40.3900 61° Northeast  Level Estimated
10:47PM -11.9816 -40.2907 61° Northeast  Level Estimated
10:47PM -11.0380 -39.6420 61° Northeast 445 512 37,000  Level FlightAware
10:47PM -10.9900 -39.5630 58° Northeast 444 511 37,000  Level FlightAware
10:48PM -10.9500 -39.4920 60° Northeast 443 510 37,000  Level FlightAware
10:49PM -10.9160 -39.4060 68° East 441 507 37,000  Level FlightAware
10:49PM -10.8940 -39.3520 67° East 440 506 37,000  Level FlightAware
10:50PM -10.8580 -39.2620 68° East 441 507 37,000  Level FlightAware
10:51PM -10.8270 -39.1840 68° East 443 510 37,000  Level FlightAware
10:51PM -10.7950 -39.1040 68° East 445 512 37,000  Level FlightAware
10:52PM -10.7610 -39.0170 68° East 448 516 37,000  Level FlightAware
10:53PM -10.7280 -38.9340 68° East 448 516 37,000 60 Level FlightAware
10:54PM -10.6940 -38.8490 68° East 446 513 37,100  Climbing FlightAware
10:54PM -10.6670 -38.7810 68° East 445 512 37,000 -120 Descending FlightAware
10:55PM -10.6360 -38.7040 68° East 444 511 37,000  Level FlightAware
10:55PM -10.6040 -38.6240 68° East 444 511 37,000  Level FlightAware
10:56PM -10.5760 -38.5550 68° East 444 511 37,000  Level FlightAware
10:57PM -10.5450 -38.4780 68° East 444 511 37,000  Level FlightAware
10:58PM -10.5060 -38.3780 68° East 443 510 37,000  Level FlightAware
10:58PM -10.4730 -38.2970 68° East 441 507 37,000  Level FlightAware
10:59PM -10.4460 -38.2300 68° East 439 505 37,000  Level FlightAware
11:00PM -10.4010 -38.1190 68° East 439 505 37,000  Level FlightAware
11:01PM -10.3770 -38.0610 67° East 439 505 37,000  Level FlightAware
11:01PM -10.3440 -37.9830 67° East 439 505 37,000  Level FlightAware
11:02PM -10.3200 -37.9250 67° East 439 505 37,000  Level FlightAware
11:03PM -10.2590 -37.7690 68° East 442 509 37,000  Level FlightAware
11:04PM -10.2340 -37.7070 68° East 442 509 37,000  Level FlightAware
11:04PM -10.2090 -37.6490 66° East 442 509 37,000  Level FlightAware
11:05PM -10.1760 -37.5710 67° East 442 509 37,000  Level FlightAware
11:06PM -10.1510 -37.5100 67° East 442 509 37,000  Level FlightAware
11:06PM -10.1180 -37.4310 67° East 442 509 37,000  Level FlightAware
11:07PM -10.0930 -37.3710 67° East 442 509 37,000  Level FlightAware
11:08PM -10.0600 -37.2930 67° East 442 509 37,000  Level FlightAware
11:08PM -10.0360 -37.2340 68° East 442 509 37,000  Level FlightAware
11:09PM -10.0030 -37.1560 67° East 442 509 37,000  Level FlightAware
11:10PM -9.9790 -37.0980 67° East 442 509 37,000  Level FlightAware
11:11PM -9.9470 -37.0210 67° East 442 509 37,000  Level FlightAware
11:11PM -9.9220 -36.9630 66° East 442 509 37,000  Level FlightAware
11:12PM -9.8880 -36.8800 67° East 442 509 37,000  Level FlightAware
11:15PM -9.7998 -36.6252 71° East  Level Estimated
11:16PM -9.7631 -36.5190 71° East  Level Estimated
11:17PM -9.7262 -36.4129 71° East  Level Estimated
11:18PM -9.6894 -36.3068 71° East  Level Estimated
11:19PM -9.6525 -36.2007 71° East  Level Estimated
11:20PM -9.6156 -36.0947 71° East  Level Estimated
11:21PM -9.5786 -35.9887 71° East  Level Estimated
11:22PM -9.5416 -35.8826 71° East  Level Estimated
11:23PM -9.5105 -35.7934 71° East  Level Estimated
11:24PM -9.5105 -35.7934 135° Southeast  Level Estimated
11:25PM -9.5105 -35.7934 135° Southeast  Level Estimated
11:26PM -9.5105 -35.7934 135° Southeast  Level Estimated
11:27PM -9.5105 -35.7934 135° Southeast  Level Estimated
11:28PM -9.5105 -35.7934 135° Southeast  Level Estimated
11:29PM -9.5105 -35.7934 135° Southeast  Level Estimated
11:30PM -9.5105 -35.7934 135° Southeast  Level Estimated
11:31PM -9.5105 -35.7934 135° Southeast  Level Estimated
11:32PM -9.5105 -35.7934 135° Southeast  Level Estimated
11:33PM -9.5105 -35.7934 135° Southeast  Level Estimated
11:34PM -9.5105 -35.7934 135° Southeast  Level Estimated
11:35PM -9.5105 -35.7934 135° Southeast  Level Estimated
11:36PM -9.5105 -35.7934 135° Southeast  Level Estimated
11:37PM -9.5105 -35.7934 135° Southeast  Level Estimated
11:38PM -9.5105 -35.7934 135° Southeast  Level Estimated
11:39PM -9.5105 -35.7934 135° Southeast  Level Estimated
11:40PM -9.5105 -35.7934 135° Southeast  Level Estimated
11:41PM -9.5105 -35.7934 135° Southeast  Level Estimated
11:42PM -9.5105 -35.7934 135° Southeast  Level Estimated
11:43PM -9.5105 -35.7934 135° Southeast  Level Estimated
11:44PM -9.5105 -35.7934 135° Southeast  Level Estimated